createdAt,value
2023-04-11T00:01:36.447Z,74.09
2023-04-11T00:04:03.628Z,74.05
2023-04-11T00:06:33.201Z,74.20
2023-04-11T00:09:01.705Z,74.27
2023-04-11T00:11:29.417Z,74.11
2023-04-11T00:13:58.170Z,74.32
2023-04-11T00:16:26.215Z,74.40
2023-04-11T00:18:53.934Z,74.41
2023-04-11T00:21:20.922Z,74.29
2023-04-11T00:23:48.649Z,74.25
2023-04-11T00:26:15.781Z,74.11
2023-04-11T00:28:43.965Z,74.17
2023-04-11T00:31:11.899Z,74.14
2023-04-11T00:33:40.496Z,73.95
2023-04-11T00:36:08.613Z,73.95
2023-04-11T00:38:37.656Z,73.89
2023-04-11T00:41:10.252Z,74.01
2023-04-11T00:43:49.023Z,73.98
2023-04-11T00:46:16.689Z,73.99
2023-04-11T00:48:43.565Z,74.07
2023-04-11T00:51:23.382Z,74.18
2023-04-11T00:53:50.592Z,73.98
2023-04-11T00:56:17.744Z,74.02
2023-04-11T00:58:45.046Z,73.89
2023-04-11T01:01:12.103Z,73.80
2023-04-11T01:03:39.418Z,73.84
2023-04-11T01:06:09.623Z,73.71
2023-04-11T01:08:37.814Z,73.79
2023-04-11T01:11:06.232Z,73.74
2023-04-11T01:13:33.638Z,73.59
2023-04-11T01:16:03.380Z,73.62
2023-04-11T01:18:31.202Z,73.53
2023-04-11T01:20:59.875Z,73.52
2023-04-11T01:23:27.393Z,73.60
2023-04-11T01:25:54.328Z,73.61
2023-04-11T01:28:22.281Z,73.72
2023-04-11T01:30:49.272Z,73.56
2023-04-11T01:33:17.574Z,73.39
2023-04-11T01:35:45.436Z,73.23
2023-04-11T01:38:12.952Z,73.20
2023-04-11T01:40:40.008Z,73.22
2023-04-11T01:43:08.746Z,73.08
2023-04-11T01:45:35.982Z,72.95
2023-04-11T01:48:06.971Z,72.96
2023-04-11T01:50:35.357Z,73.02
2023-04-11T01:53:02.246Z,73.12
2023-04-11T01:55:33.561Z,72.94
2023-04-11T01:58:00.801Z,72.90
2023-04-11T02:00:27.785Z,72.88
2023-04-11T02:02:55.122Z,72.84
2023-04-11T02:05:23.201Z,72.83
2023-04-11T02:07:50.278Z,72.84
2023-04-11T02:10:18.162Z,72.84
2023-04-11T02:12:45.603Z,72.84
2023-04-11T02:15:18.322Z,72.83
2023-04-11T02:17:46.440Z,72.84
2023-04-11T02:20:13.810Z,72.72
2023-04-11T02:22:47.072Z,72.72
2023-04-11T02:25:16.289Z,72.59
2023-04-11T02:27:43.115Z,72.63
2023-04-11T02:30:13.015Z,72.66
2023-04-11T02:32:42.366Z,72.72
2023-04-11T02:35:10.574Z,72.63
2023-04-11T02:37:38.797Z,72.56
2023-04-11T02:40:07.569Z,72.55
2023-04-11T02:42:39.946Z,72.39
2023-04-11T02:45:08.284Z,72.36
2023-04-11T02:47:35.375Z,72.28
2023-04-11T02:50:06.970Z,72.07
2023-04-11T02:52:41.510Z,71.94
2023-04-11T02:55:09.423Z,71.90
2023-04-11T02:57:37.200Z,71.59
2023-04-11T03:00:08.997Z,71.37
2023-04-11T03:02:49.003Z,71.14
2023-04-11T03:05:19.423Z,71.11
2023-04-11T03:07:48.019Z,70.92
2023-04-11T03:10:23.749Z,70.86
2023-04-11T03:12:50.981Z,70.86
2023-04-11T03:15:17.781Z,70.91
2023-04-11T03:17:46.111Z,70.99
2023-04-11T03:20:19.000Z,70.97
2023-04-11T03:22:47.969Z,71.04
2023-04-11T03:25:14.765Z,71.04
2023-04-11T03:27:42.441Z,71.22
2023-04-11T03:30:15.873Z,71.29
2023-04-11T03:32:45.978Z,71.26
2023-04-11T03:35:14.311Z,71.10
2023-04-11T03:37:44.881Z,71.23
2023-04-11T03:40:12.212Z,71.17
2023-04-11T03:42:41.469Z,71.10
2023-04-11T03:45:09.977Z,71.01
2023-04-11T03:47:38.939Z,70.66
2023-04-11T03:50:07.089Z,70.46
2023-04-11T03:52:38.377Z,70.30
2023-04-11T03:55:10.135Z,70.23
2023-04-11T03:57:37.063Z,70.00
2023-04-11T04:00:09.503Z,69.67
2023-04-11T04:03:06.649Z,69.25
2023-04-11T04:05:34.409Z,68.86
2023-04-11T04:08:05.883Z,68.10
2023-04-11T04:10:46.470Z,67.11
2023-04-11T04:13:13.574Z,65.84
2023-04-11T04:15:50.913Z,64.71
2023-04-11T04:18:18.868Z,63.09
2023-04-11T04:20:47.252Z,61.97
2023-04-11T04:23:17.495Z,60.58
2023-04-11T04:25:57.675Z,59.12
2023-04-11T04:28:33.178Z,57.56
2023-04-11T04:31:03.415Z,56.42
2023-04-11T04:33:42.142Z,55.09
2023-04-11T04:36:24.440Z,54.29
2023-04-11T04:38:52.302Z,53.24
2023-04-11T04:41:22.354Z,52.49
2023-04-11T04:43:57.620Z,52.20
2023-04-11T04:46:36.830Z,51.65
2023-04-11T04:49:05.455Z,51.33
2023-04-11T04:51:32.469Z,50.59
2023-04-11T04:54:07.442Z,50.20
2023-04-11T04:56:35.457Z,49.89
2023-04-11T04:59:04.710Z,49.60
2023-04-11T05:01:34.764Z,49.68
2023-04-11T05:04:03.342Z,49.69
2023-04-11T05:06:52.801Z,49.50
2023-04-11T05:09:27.715Z,49.33
2023-04-11T05:11:58.842Z,49.40
2023-04-11T05:14:25.709Z,49.24
2023-04-11T05:16:53.251Z,49.16
2023-04-11T05:19:20.497Z,49.41
2023-04-11T05:21:48.367Z,49.16
2023-04-11T05:24:16.094Z,48.73
2023-04-11T05:26:43.690Z,48.07
2023-04-11T05:29:11.071Z,47.52
2023-04-11T05:31:41.560Z,47.10
2023-04-11T05:34:08.622Z,46.98
2023-04-11T05:36:36.197Z,46.53
2023-04-11T05:39:04.046Z,45.89
2023-04-11T05:41:31.356Z,45.65
2023-04-11T05:43:58.357Z,45.80
2023-04-11T05:46:27.157Z,45.65
2023-04-11T05:48:53.941Z,45.59
2023-04-11T05:51:25.945Z,45.24
2023-04-11T05:53:54.837Z,45.16
2023-04-11T05:56:22.349Z,45.00
2023-04-11T05:58:51.731Z,44.77
2023-04-11T06:01:19.372Z,44.58
2023-04-11T06:03:46.595Z,44.07
2023-04-11T06:06:15.229Z,43.81
2023-04-11T06:08:42.978Z,43.49
2023-04-11T06:11:10.618Z,43.50
2023-04-11T06:13:41.888Z,43.56
2023-04-11T06:16:09.060Z,43.32
2023-04-11T06:18:35.975Z,42.91
2023-04-11T06:21:06.801Z,43.04
2023-04-11T06:23:34.268Z,42.81
2023-04-11T06:26:01.092Z,42.30
2023-04-11T06:28:29.059Z,42.18
2023-04-11T06:30:56.625Z,42.12
2023-04-11T06:33:24.285Z,42.12
2023-04-11T06:35:51.283Z,42.24
2023-04-11T06:38:18.709Z,42.04
2023-04-11T06:40:46.387Z,42.19
2023-04-11T06:43:14.360Z,41.38
2023-04-11T06:45:41.207Z,41.01
2023-04-11T06:48:08.006Z,41.09
2023-04-11T06:50:41.203Z,41.60
2023-04-11T06:53:11.280Z,41.52
2023-04-11T06:55:39.927Z,41.28
2023-04-11T06:58:06.741Z,41.36
2023-04-11T07:00:34.044Z,41.09
2023-04-11T07:03:07.086Z,41.44
2023-04-11T07:05:39.444Z,41.33
2023-04-11T07:08:09.347Z,40.47
2023-04-11T07:10:36.297Z,40.20
2023-04-11T07:13:03.183Z,39.69
2023-04-11T07:15:31.470Z,40.05
2023-04-11T07:17:59.494Z,40.41
2023-04-11T07:20:26.859Z,40.36
2023-04-11T07:22:56.174Z,39.81
2023-04-11T07:25:29.923Z,38.84
2023-04-11T07:27:57.171Z,38.74
2023-04-11T07:30:24.675Z,38.81
2023-04-11T07:33:02.547Z,38.27
2023-04-11T07:35:31.002Z,38.37
2023-04-11T07:37:57.931Z,38.26
2023-04-11T07:40:24.760Z,38.01
2023-04-11T07:42:51.769Z,37.76
2023-04-11T07:45:19.309Z,38.33
2023-04-11T07:47:47.529Z,38.35
2023-04-11T07:50:15.392Z,38.45
2023-04-11T07:52:42.234Z,38.16
2023-04-11T07:55:09.721Z,38.01
2023-04-11T07:57:36.796Z,38.11
2023-04-11T08:00:06.364Z,37.69
2023-04-11T08:02:40.228Z,37.01
2023-04-11T08:05:09.384Z,36.87
2023-04-11T08:07:36.967Z,37.52
2023-04-11T08:10:05.189Z,37.90
2023-04-11T08:12:33.966Z,38.43
2023-04-11T08:15:06.518Z,38.84
2023-04-11T08:17:37.321Z,39.04
2023-04-11T08:20:08.199Z,39.68
2023-04-11T08:22:46.302Z,39.14
2023-04-11T08:25:13.894Z,38.98
2023-04-11T08:27:40.888Z,39.22
2023-04-11T08:30:08.396Z,39.66
2023-04-11T08:32:35.680Z,39.66
2023-04-11T08:35:03.189Z,39.04
2023-04-11T08:37:30.761Z,38.43
2023-04-11T08:39:57.584Z,38.57
2023-04-11T08:42:25.921Z,38.68
2023-04-11T08:44:56.850Z,38.58
2023-04-11T08:47:24.936Z,38.94
2023-04-11T08:49:52.205Z,38.49
2023-04-11T08:52:19.505Z,38.22
2023-04-11T08:54:47.921Z,38.12
2023-04-11T08:57:28.005Z,38.17
2023-04-11T08:59:55.707Z,38.82
2023-04-11T09:02:22.906Z,38.90
2023-04-11T09:04:50.973Z,38.93
2023-04-11T09:07:18.694Z,38.55
2023-04-11T09:09:45.960Z,38.71
2023-04-11T09:12:14.035Z,38.62
2023-04-11T09:14:42.485Z,38.84
2023-04-11T09:17:12.861Z,38.77
2023-04-11T09:19:41.406Z,38.48
2023-04-11T09:22:08.342Z,38.25
2023-04-11T09:24:37.001Z,38.16
2023-04-11T09:27:11.252Z,38.40
2023-04-11T09:29:44.985Z,38.53
2023-04-11T09:32:31.795Z,38.31
2023-04-11T09:35:22.182Z,38.45
2023-04-11T09:37:54.440Z,38.54
2023-04-11T09:40:22.996Z,38.05
2023-04-11T09:42:56.718Z,38.07
2023-04-11T09:45:24.863Z,38.18
2023-04-11T09:47:55.452Z,37.96
2023-04-11T09:50:22.950Z,38.09
2023-04-11T09:52:57.077Z,38.92
2023-04-11T09:55:26.716Z,39.40
2023-04-11T09:57:54.091Z,39.34
2023-04-11T10:00:28.724Z,39.11
2023-04-11T10:02:56.457Z,39.33
2023-04-11T10:05:27.382Z,39.51
2023-04-11T10:08:04.626Z,39.70
2023-04-11T10:10:31.633Z,38.81
2023-04-11T10:12:58.896Z,38.38
2023-04-11T10:15:26.561Z,38.32
2023-04-11T10:18:11.106Z,38.24
2023-04-11T10:20:43.065Z,38.59
2023-04-11T10:23:10.721Z,38.58
2023-04-11T10:25:54.734Z,38.66
2023-04-11T10:28:38.554Z,37.98
2023-04-11T10:31:06.966Z,38.48
2023-04-11T10:33:34.369Z,38.38
2023-04-11T10:36:03.109Z,38.08
2023-04-11T10:38:36.552Z,38.16
2023-04-11T10:41:32.977Z,38.53
2023-04-11T10:44:17.752Z,38.83
2023-04-11T10:46:48.978Z,38.82
2023-04-11T10:49:38.416Z,38.59
2023-04-11T10:52:21.094Z,38.69
2023-04-11T10:54:52.480Z,38.63
2023-04-11T10:57:27.971Z,38.81
2023-04-11T10:59:56.463Z,39.12
2023-04-11T11:02:24.099Z,39.10
2023-04-11T11:04:51.916Z,38.98
2023-04-11T11:07:18.895Z,39.19
2023-04-11T11:09:50.392Z,39.44
2023-04-11T11:12:17.250Z,39.39
2023-04-11T11:14:45.601Z,39.13
2023-04-11T11:17:13.098Z,39.25
2023-04-11T11:19:44.504Z,39.54
2023-04-11T11:22:17.099Z,39.74
2023-04-11T11:24:44.726Z,40.14
2023-04-11T11:27:19.420Z,40.20
2023-04-11T11:29:46.348Z,39.62
2023-04-11T11:32:24.744Z,39.36
2023-04-11T11:34:52.461Z,39.06
2023-04-11T11:37:20.531Z,38.13
2023-04-11T11:39:47.846Z,37.43
2023-04-11T11:42:15.149Z,36.65
2023-04-11T11:44:42.225Z,36.68
2023-04-11T11:47:16.952Z,36.60
2023-04-11T11:49:44.922Z,36.30
2023-04-11T11:52:17.244Z,36.37
2023-04-11T11:54:48.065Z,36.86
2023-04-11T11:57:22.118Z,36.43
2023-04-11T11:59:55.772Z,35.72
2023-04-11T12:02:23.140Z,35.12
2023-04-11T12:05:03.596Z,34.47
2023-04-11T12:07:36.217Z,34.41
2023-04-11T12:10:08.235Z,34.98
2023-04-11T12:12:36.153Z,35.47
2023-04-11T12:15:10.621Z,35.93
2023-04-11T12:17:38.135Z,36.62
2023-04-11T12:20:10.003Z,35.71
2023-04-11T12:22:37.343Z,35.25
2023-04-11T12:25:08.084Z,35.52
2023-04-11T12:27:39.297Z,35.24
2023-04-11T12:30:07.350Z,35.04
2023-04-11T12:32:41.250Z,35.41
2023-04-11T12:35:08.619Z,36.06
2023-04-11T12:37:35.744Z,35.82
2023-04-11T12:40:09.678Z,34.73
2023-04-11T12:42:48.945Z,34.27
2023-04-11T12:45:22.685Z,34.39
2023-04-11T12:47:49.985Z,34.51
2023-04-11T12:50:23.224Z,33.98
2023-04-11T12:52:53.796Z,34.21
2023-04-11T12:55:21.887Z,33.81
2023-04-11T12:57:51.460Z,33.60
2023-04-11T13:00:18.985Z,33.24
2023-04-11T13:02:48.045Z,32.78
2023-04-11T13:05:16.663Z,32.66
2023-04-11T13:07:44.615Z,32.75
2023-04-11T13:10:13.085Z,32.28
2023-04-11T13:12:41.001Z,32.38
2023-04-11T13:15:11.328Z,31.95
2023-04-11T13:17:38.341Z,30.73
2023-04-11T13:20:09.561Z,29.93
2023-04-11T13:22:40.813Z,30.11
2023-04-11T13:25:08.109Z,30.25
2023-04-11T13:27:36.746Z,29.95
2023-04-11T13:30:06.048Z,29.59
2023-04-11T13:32:35.286Z,28.93
2023-04-11T13:35:03.535Z,29.16
2023-04-11T13:37:31.101Z,29.08
2023-04-11T13:39:58.254Z,29.05
2023-04-11T13:42:27.474Z,29.09
2023-04-11T13:44:54.740Z,29.17
2023-04-11T13:47:21.540Z,29.26
2023-04-11T13:49:48.503Z,29.39
2023-04-11T13:52:15.630Z,29.31
2023-04-11T13:54:45.369Z,29.73
2023-04-11T13:57:14.294Z,30.17
2023-04-11T13:59:41.148Z,30.19
2023-04-11T14:02:09.176Z,30.47
2023-04-11T14:04:36.680Z,30.37
2023-04-11T14:07:03.610Z,30.72
2023-04-11T14:09:34.673Z,31.28
2023-04-11T14:12:01.700Z,31.60
2023-04-11T14:14:32.596Z,31.43
2023-04-11T14:16:59.951Z,31.50
2023-04-11T14:19:52.290Z,31.99
2023-04-11T14:22:19.148Z,32.50
2023-04-11T14:24:46.117Z,32.93
2023-04-11T14:27:16.189Z,33.14
2023-04-11T14:29:44.465Z,33.50
2023-04-11T14:32:11.402Z,33.84
2023-04-11T14:34:39.111Z,33.97
2023-04-11T14:37:06.375Z,34.08
2023-04-11T14:39:39.297Z,34.34
2023-04-11T14:42:06.592Z,34.55
2023-04-11T14:44:34.967Z,34.76
2023-04-11T14:47:01.985Z,34.77
2023-04-11T14:49:29.146Z,34.97
2023-04-11T14:52:01.725Z,34.98
2023-04-11T14:54:28.887Z,35.19
2023-04-11T14:56:57.156Z,35.19
2023-04-11T14:59:24.712Z,35.21
2023-04-11T15:01:52.512Z,35.27
2023-04-11T15:04:19.979Z,35.23
2023-04-11T15:06:47.840Z,35.51
2023-04-11T15:09:19.703Z,35.59
2023-04-11T15:11:46.809Z,35.87
2023-04-11T15:14:18.624Z,36.34
2023-04-11T15:16:47.814Z,36.92
2023-04-11T15:19:14.957Z,37.20
2023-04-11T15:21:46.120Z,37.33
2023-04-11T15:24:16.690Z,37.49
2023-04-11T15:26:46.650Z,37.59
2023-04-11T15:29:17.206Z,37.88
2023-04-11T15:31:46.232Z,38.18
2023-04-11T15:34:13.600Z,38.39
2023-04-11T15:36:45.278Z,38.30
2023-04-11T15:39:12.315Z,38.36
2023-04-11T15:41:39.096Z,38.66
2023-04-11T15:44:06.184Z,39.00
2023-04-11T15:46:33.419Z,39.15
2023-04-11T15:49:07.252Z,39.27
2023-04-11T15:51:34.197Z,39.34
2023-04-11T15:54:01.210Z,39.22
2023-04-11T15:56:28.141Z,39.37
2023-04-11T15:58:55.055Z,39.72
2023-04-11T16:01:26.010Z,39.97
2023-04-11T16:03:59.271Z,40.09
2023-04-11T16:06:26.772Z,40.26
2023-04-11T16:08:54.222Z,40.30
2023-04-11T16:11:26.313Z,40.37
2023-04-11T16:13:54.484Z,40.51
2023-04-11T16:16:21.645Z,40.66
2023-04-11T16:18:50.530Z,40.87
2023-04-11T16:21:17.691Z,41.01
2023-04-11T16:23:48.363Z,41.21
2023-04-11T16:26:15.687Z,41.45
2023-04-11T16:28:42.574Z,41.59
2023-04-11T16:31:09.504Z,41.72
2023-04-11T16:33:37.316Z,41.96
2023-04-11T16:36:04.545Z,41.92
2023-04-11T16:38:31.596Z,42.13
2023-04-11T16:41:00.112Z,42.24
2023-04-11T16:43:26.997Z,42.36
2023-04-11T16:45:54.066Z,42.42
2023-04-11T16:48:21.041Z,42.40
2023-04-11T16:50:48.094Z,42.51
2023-04-11T16:53:16.914Z,42.48
2023-04-11T16:55:45.345Z,42.62
2023-04-11T16:58:12.271Z,42.78
2023-04-11T17:00:40.704Z,42.84
2023-04-11T17:03:08.231Z,42.92
2023-04-11T17:05:35.467Z,42.94
2023-04-11T17:08:05.754Z,42.85
2023-04-11T17:10:33.337Z,42.88
2023-04-11T17:13:00.521Z,42.70
2023-04-11T17:15:27.396Z,42.86
2023-04-11T17:17:55.248Z,43.04
2023-04-11T17:20:23.095Z,43.02
2023-04-11T17:22:51.242Z,43.28
2023-04-11T17:25:18.637Z,43.22
2023-04-11T17:27:49.026Z,43.36
2023-04-11T17:30:16.201Z,43.50
2023-04-11T17:32:46.443Z,43.46
2023-04-11T17:35:13.898Z,43.38
2023-04-11T17:37:41.002Z,43.79
2023-04-11T17:40:12.661Z,44.19
2023-04-11T17:42:40.930Z,44.47
2023-04-11T17:45:17.840Z,44.53
2023-04-11T17:47:47.017Z,44.94
2023-04-11T17:50:15.801Z,45.20
2023-04-11T17:52:43.993Z,45.09
2023-04-11T17:55:14.639Z,45.32
2023-04-11T17:57:42.212Z,45.59
2023-04-11T18:00:22.756Z,45.74
2023-04-11T18:02:57.076Z,45.99
2023-04-11T18:05:26.112Z,45.57
2023-04-11T18:07:58.647Z,45.01
2023-04-11T18:10:27.003Z,45.11
2023-04-11T18:12:55.930Z,45.26
2023-04-11T18:15:27.408Z,45.08
2023-04-11T18:17:54.938Z,45.04
2023-04-11T18:20:22.017Z,45.22
2023-04-11T18:22:55.618Z,45.23
2023-04-11T18:25:22.724Z,45.12
2023-04-11T18:27:49.944Z,45.02
2023-04-11T18:30:16.833Z,44.57
2023-04-11T18:32:50.156Z,44.16
2023-04-11T18:35:17.979Z,44.18
2023-04-11T18:37:46.595Z,44.09
2023-04-11T18:40:13.671Z,43.90
2023-04-11T18:42:46.689Z,43.81
2023-04-11T18:45:13.795Z,43.77
2023-04-11T18:47:41.862Z,43.47
2023-04-11T18:50:09.889Z,43.30
2023-04-11T18:52:37.123Z,43.40
2023-04-11T18:55:04.383Z,43.53
2023-04-11T18:57:34.414Z,43.51
2023-04-11T19:00:14.948Z,43.56
2023-04-11T19:02:49.957Z,43.76
2023-04-11T19:05:18.885Z,43.88
2023-04-11T19:07:47.578Z,43.90
2023-04-11T19:10:15.627Z,43.81
2023-04-11T19:12:44.942Z,43.52
2023-04-11T19:15:19.208Z,43.57
2023-04-11T19:17:47.186Z,43.67
2023-04-11T19:20:15.957Z,43.80
2023-04-11T19:22:45.728Z,43.70
2023-04-11T19:25:14.065Z,43.79
2023-04-11T19:27:42.046Z,43.99
2023-04-11T19:30:10.741Z,43.92
2023-04-11T19:32:56.558Z,44.13
2023-04-11T19:35:24.720Z,44.22
2023-04-11T19:37:52.624Z,44.13
2023-04-11T19:40:22.669Z,44.11
2023-04-11T19:42:50.733Z,43.93
2023-04-11T19:45:18.631Z,43.72
2023-04-11T19:47:46.784Z,43.78
2023-04-11T19:50:14.208Z,43.80
2023-04-11T19:52:42.268Z,43.70
2023-04-11T19:55:10.399Z,43.59
2023-04-11T19:57:43.193Z,43.65
2023-04-11T20:00:16.558Z,43.77
2023-04-11T20:02:45.438Z,43.72
2023-04-11T20:05:17.801Z,43.91
2023-04-11T20:07:46.570Z,44.08
2023-04-11T20:10:18.340Z,44.24
2023-04-11T20:12:46.423Z,44.55
2023-04-11T20:15:14.374Z,44.73
2023-04-11T20:17:45.904Z,44.91
2023-04-11T20:20:14.853Z,44.98
2023-04-11T20:22:44.126Z,44.94
2023-04-11T20:25:11.546Z,45.06
2023-04-11T20:27:40.914Z,45.01
2023-04-11T20:30:10.003Z,44.90
2023-04-11T20:32:38.121Z,44.89
2023-04-11T20:35:05.959Z,44.50
2023-04-11T20:37:34.528Z,44.25
2023-04-11T20:40:01.878Z,44.02
2023-04-11T20:42:31.150Z,44.34
2023-04-11T20:45:15.748Z,44.65
2023-04-11T20:47:47.112Z,45.06
2023-04-11T20:50:15.194Z,45.62
2023-04-11T20:52:45.164Z,46.45
2023-04-11T20:55:13.925Z,47.41
2023-04-11T20:57:40.991Z,48.24
2023-04-11T21:00:18.080Z,48.93
2023-04-11T21:02:50.584Z,49.74
2023-04-11T21:05:19.136Z,50.76
2023-04-11T21:07:54.815Z,51.25
2023-04-11T21:10:22.201Z,51.83
2023-04-11T21:12:50.827Z,52.43
2023-04-11T21:15:19.557Z,52.65
2023-04-11T21:17:47.102Z,53.29
2023-04-11T21:20:17.096Z,54.34
2023-04-11T21:22:55.105Z,54.62
2023-04-11T21:25:22.712Z,54.13
2023-04-11T21:27:49.689Z,54.29
2023-04-11T21:30:16.535Z,54.98
2023-04-11T21:32:46.090Z,55.55
2023-04-11T21:35:13.013Z,55.81
2023-04-11T21:37:39.879Z,56.04
2023-04-11T21:40:13.393Z,56.83
2023-04-11T21:42:41.049Z,57.76
2023-04-11T21:45:08.220Z,58.24
2023-04-11T21:47:35.382Z,58.31
2023-04-11T21:50:02.389Z,58.18
2023-04-11T21:52:37.522Z,57.66
2023-04-11T21:55:08.567Z,57.60
2023-04-11T21:57:35.880Z,57.32
2023-04-11T22:00:04.272Z,57.38
2023-04-11T22:02:39.719Z,56.72
2023-04-11T22:05:08.734Z,56.44
2023-04-11T22:07:38.146Z,56.56
2023-04-11T22:10:09.012Z,56.65
2023-04-11T22:12:37.395Z,57.00
2023-04-11T22:15:04.814Z,57.82
2023-04-11T22:17:32.645Z,58.69
2023-04-11T22:19:59.785Z,59.54
2023-04-11T22:22:29.683Z,60.44
2023-04-11T22:24:59.310Z,60.82
2023-04-11T22:27:26.672Z,61.22
2023-04-11T22:29:57.233Z,61.26
2023-04-11T22:32:24.636Z,61.10
2023-04-11T22:34:51.521Z,60.90
2023-04-11T22:37:18.656Z,61.24
2023-04-11T22:39:45.455Z,61.15
2023-04-11T22:42:12.758Z,61.10
2023-04-11T22:44:40.307Z,61.28
2023-04-11T22:47:10.602Z,61.40
2023-04-11T22:49:42.280Z,61.68
2023-04-11T22:52:10.054Z,62.45
2023-04-11T22:54:37.919Z,62.66
2023-04-11T22:57:04.822Z,63.02
2023-04-11T22:59:33.211Z,63.50
2023-04-11T23:02:01.094Z,63.89
2023-04-11T23:04:28.081Z,64.35
2023-04-11T23:06:57.582Z,64.67
2023-04-11T23:09:24.623Z,64.91
2023-04-11T23:11:52.837Z,65.12
2023-04-11T23:14:21.597Z,65.55
2023-04-11T23:16:48.715Z,65.64
2023-04-11T23:19:16.500Z,65.77
2023-04-11T23:21:43.999Z,66.27
2023-04-11T23:24:10.791Z,66.53
2023-04-11T23:26:37.704Z,66.98
2023-04-11T23:29:04.846Z,67.16
2023-04-11T23:31:33.133Z,67.59
2023-04-11T23:34:00.363Z,67.74
2023-04-11T23:36:28.435Z,67.89
2023-04-11T23:38:56.112Z,68.20
2023-04-11T23:41:35.193Z,68.23
2023-04-11T23:44:01.965Z,68.72
2023-04-11T23:46:29.119Z,69.04
2023-04-11T23:48:56.414Z,69.22
2023-04-11T23:51:23.572Z,69.37
2023-04-11T23:54:01.125Z,69.72
2023-04-11T23:56:29.155Z,70.05
2023-04-11T23:58:55.906Z,70.35
